East Wittering, United Kingdom
Current Conditions -  °F | °C
As of 12:20 PM on Monday 20 Oct 2014 (Local Time) from EGHI Reporting Station
Scattered Clouds Scattered Clouds  
Wind Chill: 59°   Ceiling: Unl
Heat Index: 59°   Visibility: 6mi
Dew Point: 50°   Wind: 13mph
Humidity: 72%   Direction: 260°W
Pressure: 30.06"   Gusts: NA
Location:  50.77°N, 0.87°W
Report Text: EGHI 201120Z 26011KT 230V290 9999 FEW020 SCT040 15/10 Q1018
Loading
Personal Weather Stations






























Interactive Weather Map
Tropical Storm Tracking
New forecast layout! Learn more

10-Day Weather Forecast

Advertisements
Track Severe Weather on mobile